5G0 weather

Le Roy Airport
Le Roy, New York, United States

Public forecast

Using degrees Fahrenheit for public forecast. Weather courtesy of forecast.io.

Closest aviation weather report (METAR) to Le Roy Airport

Closest report is Greater Rochester International Airport, 14.3 nm (26.4 km) NE. Retrieved 2020/03/30 19:54 UTC (31 minutes ago):

KROC 301954Z 25016KT 10SM -RA OVC023 07/03 A2988 RMK AO2 PK WND 27027/1932 RAB05 SLP125 P0000 T00720033

Closest aviation forecast (TAF) to Le Roy Airport

Closest forecast is Greater Rochester International Airport, 14.3 nm (26.4 km) NE. Retrieved 2020/03/30 18:33 UTC (2 hours ago):

TAF KROC 301730Z 3018/3118 26014G20KT P6SM -RA OVC025 FM302200 25013KT 6SM -RA BR OVC015 FM310200 27007KT 6SM -RA BR OVC012 FM310800 26005KT P6SM VCSH OVC007 FM311400 VRB03KT P6SM OVC012